This is the latest recevied weather packets stored in our database for station/object SQ5DCP-1. If no packets are shown the sender has not sent any weather packets the latest 10 day(s).
| Time | Temp. | Humidity | Pressure | Rain* | Wind** | Luminosity | Snow |
|---|---|---|---|---|---|---|---|
| 1787824216 | 22.22° C | 48% | 1023.9 hPa | 0 mm | - | - | - |
| 1787823934 | 21.67° C | 49% | 1023.9 hPa | 0 mm | - | - | - |
| 1787823632 | 21.67° C | 48% | 1023.8 hPa | 0 mm | - | - | - |
| 1787823330 | 22.22° C | 48% | 1023.9 hPa | 0 mm | - | - | - |
| 1787823029 | 22.22° C | 48% | 1023.8 hPa | 0 mm | - | - | - |
| 1787822726 | 22.22° C | 49% | 1023.8 hPa | 0 mm | - | - | - |
| 1787822424 | 22.22° C | 49% | 1023.8 hPa | 0 mm | - | - | - |
| 1787822123 | 21.67° C | 50% | 1023.9 hPa | 0 mm | - | - | - |
| 1787821821 | 21.67° C | 51% | 1023.9 hPa | 0 mm | - | - | - |
| 1787821519 | 21.67° C | 51% | 1024 hPa | 0 mm | - | - | - |
| 1787821248 | 21.11° C | 50% | 1024 hPa | 0 mm | - | - | - |
| 1787821217 | 21.11° C | 50% | 1024 hPa | 0 mm | - | - | - |
| 1787820935 | 21.11° C | 50% | 1023.9 hPa | 0 mm | - | - | - |
| 1787820633 | 21.11° C | 51% | 1024 hPa | 0 mm | - | - | - |
| 1787820331 | 21.11° C | 52% | 1023.9 hPa | 0 mm | - | - | - |
| 1787820030 | 21.11° C | 53% | 1023.9 hPa | 0 mm | - | - | - |
| 1787819728 | 20.56° C | 55% | 1023.9 hPa | 0 mm | - | - | - |
| 1787819520 | 16.67° C | 66% | 1024 hPa | 0 mm | - | - | - |
| 1787819426 | 20.56° C | 55% | 1024 hPa | 0 mm | - | - | - |
| 1787819124 | 20° C | 57% | 1024 hPa | 0 mm | - | - | - |
| 1787818822 | 20° C | 58% | 1024 hPa | 0 mm | - | - | - |
| 1787818520 | 19.44° C | 59% | 1024 hPa | 0 mm | - | - | - |
| 1787818218 | 19.44° C | 59% | 1024.1 hPa | 0 mm | - | - | - |
| 1787817915 | 19.44° C | 61% | 1024.1 hPa | 0 mm | - | - | - |
| 1787817644 | 18.89° C | 61% | 1024.1 hPa | 0 mm | - | - | - |
* Rain latest hour (hover to see other rain measurements)
** Current wind speed in m/s (hover to see current wind gust speed)